Time;durP1;ratioP1;P1;durP2;ratioP2;P2;SDS_P1;SDS_P2;PMS_P1;PMS_P2;Temp;Humidity;BMP_temperature;BMP_pressure;BME280_temperature;BME280_humidity;BME280_pressure;Samples;Min_cycle;Max_cycle;Signal;HPM_P1;HPM_P2
2021/08/20 00:01:52;;;;;;;12.43;6.80;;;18.20;99.90;;;;;;5068942;28;20048;-81
2021/08/20 00:04:32;;;;;;;12.05;6.93;;;18.20;99.90;;;;;;5062562;28;20361;-81
2021/08/20 00:06:59;;;;;;;12.68;6.93;;;18.20;99.90;;;;;;5085017;28;20088;-82
2021/08/20 00:09:27;;;;;;;16.10;7.05;;;18.20;99.90;;;;;;5075203;28;20044;-82
2021/08/20 00:11:57;;;;;;;9.95;7.15;;;18.20;99.90;;;;;;5079237;28;20101;-83
2021/08/20 00:14:29;;;;;;;10.77;7.00;;;18.20;99.90;;;;;;5073401;28;20094;-82
2021/08/20 00:16:56;;;;;;;12.98;7.55;;;18.20;99.90;;;;;;5071419;28;20044;-82
2021/08/20 00:19:30;;;;;;;14.68;8.18;;;18.20;99.90;;;;;;5064825;28;20045;-84
2021/08/20 00:22:05;;;;;;;10.93;7.07;;;18.20;99.90;;;;;;5082892;28;20040;-83
2021/08/20 00:24:37;;;;;;;16.35;8.18;;;18.20;99.90;;;;;;5083982;28;20547;-82
2021/08/20 00:27:07;;;;;;;13.57;8.93;;;18.20;99.90;;;;;;5075618;28;20043;-80
2021/08/20 00:29:36;;;;;;;12.05;8.35;;;18.20;99.90;;;;;;5088655;28;20472;-82
2021/08/20 00:32:04;;;;;;;12.40;9.07;;;18.20;99.90;;;;;;5078533;28;20063;-79
2021/08/20 00:34:32;;;;;;;18.13;10.60;;;18.20;99.90;;;;;;5082305;28;20137;-82
2021/08/20 00:36:59;;;;;;;14.82;9.88;;;18.10;99.90;;;;;;5085013;28;20051;-80
2021/08/20 00:39:28;;;;;;;18.80;11.27;;;18.20;99.90;;;;;;5078192;28;20082;-82
2021/08/20 00:41:56;;;;;;;15.23;9.75;;;18.10;99.90;;;;;;5087128;28;20097;-81
2021/08/20 00:44:27;;;;;;;16.13;9.70;;;18.20;99.90;;;;;;5079712;28;20059;-83
2021/08/20 00:46:57;;;;;;;13.77;10.23;;;18.10;99.90;;;;;;5072164;28;20043;-82
2021/08/20 00:49:27;;;;;;;17.52;10.30;;;18.10;99.90;;;;;;5085137;28;20383;-80
2021/08/20 00:52:02;;;;;;;14.73;10.65;;;18.10;99.90;;;;;;5089713;28;20155;-82
2021/08/20 00:54:33;;;;;;;21.73;12.70;;;18.10;99.90;;;;;;5079316;28;20081;-81
2021/08/20 00:57:02;;;;;;;15.85;11.95;;;18.10;99.90;;;;;;5075633;28;20046;-83
2021/08/20 00:59:39;;;;;;;;;;;18.10;99.90;;;;;;5088853;28;20054;-83
2021/08/20 01:02:09;;;;;;;21.77;12.45;;;18.10;99.90;;;;;;5092007;28;19920;-82
2021/08/20 01:04:41;;;;;;;16.58;11.15;;;18.10;99.90;;;;;;5092704;28;20051;-80
2021/08/20 01:07:17;;;;;;;18.27;11.07;;;18.10;99.90;;;;;;5091891;28;20480;-82
2021/08/20 01:09:50;;;;;;;15.20;10.18;;;18.10;99.90;;;;;;5082530;28;20472;-82
2021/08/20 01:12:30;;;;;;;18.35;10.63;;;18.10;99.90;;;;;;5074805;28;20050;-80
2021/08/20 01:14:57;;;;;;;15.73;10.30;;;18.10;99.90;;;;;;5074116;28;20047;-83
2021/08/20 01:17:25;;;;;;;15.95;11.13;;;18.10;99.90;;;;;;5090710;28;20105;-82
2021/08/20 01:19:57;;;;;;;15.43;10.75;;;18.10;99.90;;;;;;5091166;28;20044;-80
2021/08/20 01:22:29;;;;;;;19.52;12.18;;;18.10;99.90;;;;;;5072872;28;20466;-82
2021/08/20 01:25:02;;;;;;;17.88;11.77;;;18.10;99.90;;;;;;5068968;28;20044;-82
2021/08/20 01:27:45;;;;;;;;;;;;;;;;;;;;;
2021/08/20 01:30:20;;;;;;;18.88;11.77;;;18.10;99.90;;;;;;5073575;28;20048;-82
2021/08/20 01:32:57;;;;;;;25.70;12.18;;;18.10;99.90;;;;;;5091786;28;20044;-82
2021/08/20 01:35:39;;;;;;;;;;;;;;;;;;;;;
2021/08/20 01:38:35;;;;;;;14.40;10.35;;;18.00;99.90;;;;;;5022982;28;20076;-82
2021/08/20 01:41:07;;;;;;;19.42;11.02;;;18.10;99.90;;;;;;5020527;28;20060;-82
2021/08/20 01:43:58;;;;;;;15.35;11.07;;;18.10;99.90;;;;;;4971228;28;20054;-83
2021/08/20 01:46:29;;;;;;;15.88;11.45;;;18.10;99.90;;;;;;4984373;28;20043;-82
2021/08/20 01:49:04;;;;;;;17.52;11.68;;;18.10;99.90;;;;;;4977170;28;20042;-82
2021/08/20 01:51:41;;;;;;;18.70;11.20;;;18.10;99.90;;;;;;4938253;28;20471;-83
2021/08/20 01:54:20;;;;;;;13.18;11.07;;;18.10;99.90;;;;;;4981019;28;20042;-81
2021/08/20 02:17:53;;;;;;;26.48;15.15;;;17.90;99.90;;;;;;6000975;22;4555555;-82
2021/08/20 02:20:40;;;;;;;19.52;14.90;;;17.90;99.90;;;;;;6148578;23;20024;-83
2021/08/20 02:23:11;;;;;;;23.15;14.88;;;17.90;99.90;;;;;;6137920;23;20059;-82
2021/08/20 02:25:38;;;;;;;19.02;14.48;;;17.90;99.90;;;;;;6142962;23;20018;-79
2021/08/20 02:28:06;;;;;;;23.80;15.00;;;17.90;99.90;;;;;;6147179;23;20017;-81
2021/08/20 02:30:37;;;;;;;23.15;14.27;;;17.90;99.90;;;;;;6139248;23;20021;-80
2021/08/20 02:33:06;;;;;;;23.67;15.07;;;17.90;99.90;;;;;;6152583;23;20039;-79
2021/08/20 02:35:38;;;;;;;18.63;14.43;;;17.90;99.90;;;;;;6167140;23;20025;-82
2021/08/20 02:38:05;;;;;;;22.05;14.70;;;18.00;99.90;;;;;;6155655;23;20017;-82
2021/08/20 02:40:36;;;;;;;22.55;15.27;;;18.00;99.90;;;;;;6166794;23;20071;-82
2021/08/20 02:43:04;;;;;;;25.90;14.77;;;17.90;99.90;;;;;;6166141;23;20096;-82
2021/08/20 02:45:33;;;;;;;19.45;13.95;;;17.90;99.90;;;;;;6114961;23;20481;-82
2021/08/20 02:48:03;;;;;;;26.67;14.88;;;18.00;99.90;;;;;;6148803;23;20013;-82
2021/08/20 02:50:30;;;;;;;21.52;13.13;;;17.90;99.90;;;;;;6133011;23;20095;-82
2021/08/20 02:53:01;;;;;;;22.08;14.50;;;17.90;99.90;;;;;;6160112;23;20021;-82
2021/08/20 02:55:30;;;;;;;17.17;13.38;;;17.90;99.90;;;;;;6176130;23;20020;-82
2021/08/20 02:58:20;;;;;;;23.13;14.02;;;17.90;99.90;;;;;;6167638;23;20330;-82
2021/08/20 03:00:51;;;;;;;19.10;13.57;;;18.00;99.90;;;;;;6159358;23;20024;-82
2021/08/20 03:03:22;;;;;;;17.58;12.95;;;17.90;99.90;;;;;;6189326;23;20017;-82
2021/08/20 03:06:05;;;;;;;19.15;13.52;;;17.90;99.90;;;;;;6190313;23;20021;-82
2021/08/20 03:08:37;;;;;;;22.58;13.45;;;17.90;99.90;;;;;;6180589;23;20035;-82
2021/08/20 03:11:06;;;;;;;20.58;13.95;;;17.90;99.90;;;;;;6148633;23;20438;-81
2021/08/20 03:13:43;;;;;;;21.08;13.23;;;17.90;99.90;;;;;;6190747;23;20374;-82
2021/08/20 03:16:21;;;;;;;19.52;12.95;;;17.90;99.90;;;;;;6171143;23;20027;-83
2021/08/20 03:18:55;;;;;;;19.88;13.30;;;17.90;99.90;;;;;;6176651;23;20093;-81
2021/08/20 03:21:25;;;;;;;27.67;14.45;;;17.90;99.90;;;;;;6150363;23;20044;-79
2021/08/20 03:23:54;;;;;;;25.77;14.80;;;17.90;99.90;;;;;;6181290;23;20044;-82
2021/08/20 03:26:44;;;;;;;21.50;13.23;;;17.90;99.90;;;;;;6176178;23;20385;-82
2021/08/20 03:29:18;;;;;;;25.17;14.05;;;17.90;99.90;;;;;;6174372;23;20025;-82
2021/08/20 03:31:48;;;;;;;20.73;14.07;;;17.90;99.90;;;;;;6173802;23;20024;-82
2021/08/20 03:34:21;;;;;;;20.60;14.07;;;17.90;99.90;;;;;;6188317;23;20024;-83
2021/08/20 03:36:51;;;;;;;21.15;14.50;;;17.90;99.90;;;;;;6158619;23;20020;-81
2021/08/20 03:39:25;;;;;;;20.52;14.70;;;17.90;99.90;;;;;;6148571;23;20088;-82
2021/08/20 03:42:04;;;;;;;22.75;15.00;;;17.90;99.90;;;;;;6176504;23;20040;-83
2021/08/20 03:44:52;;;;;;;;;;;;;;;;;;;;;
2021/08/20 03:47:54;;;;;;;22.45;14.80;;;17.90;99.90;;;;;;6201066;23;20020;-82
2021/08/20 03:50:24;;;;;;;20.65;14.93;;;17.90;99.90;;;;;;6173142;23;20016;-81
2021/08/20 03:52:51;;;;;;;24.52;14.32;;;17.80;99.90;;;;;;6188898;23;20021;-82
2021/08/20 03:55:22;;;;;;;23.13;15.73;;;17.80;99.90;;;;;;6188412;23;20492;-82
2021/08/20 03:57:56;;;;;;;23.65;14.77;;;17.80;99.90;;;;;;6189422;23;20024;-82
2021/08/20 04:00:38;;;;;;;20.65;14.48;;;17.80;99.90;;;;;;6171283;23;20081;-82
2021/08/20 04:03:16;;;;;;;24.48;16.13;;;17.80;99.90;;;;;;6188924;23;20036;-82
2021/08/20 04:05:53;;;;;;;22.75;14.18;;;17.80;99.90;;;;;;6174050;23;20028;-82
2021/08/20 04:08:30;;;;;;;24.17;14.77;;;17.80;99.90;;;;;;6170667;23;20425;-83
2021/08/20 04:11:07;;;;;;;;;;;;;;;;;;;;;
2021/08/20 04:14:05;;;;;;;24.17;15.35;;;17.80;99.90;;;;;;6175591;23;20507;-83
2021/08/20 04:16:46;;;;;;;21.95;14.32;;;17.80;99.90;;;;;;6155092;23;20055;-79
2021/08/20 04:19:20;;;;;;;30.70;15.48;;;17.80;99.90;;;;;;6187753;23;20044;-82
2021/08/20 04:21:57;;;;;;;21.80;14.90;;;17.80;99.90;;;;;;6175390;23;20016;-82
2021/08/20 04:25:24;;;;;;;;;;;;;;;;;;;;;
2021/08/20 04:27:53;;;;;;;18.25;14.32;;;17.80;99.90;;;;;;6025120;23;20475;-83
2021/08/20 04:30:29;;;;;;;24.60;14.60;;;17.70;99.90;;;;;;6015724;23;20514;-82
2021/08/20 04:33:41;;;;;;;;;;;;;;;;;;;;;
2021/08/20 04:36:35;;;;;;;18.58;14.25;;;17.70;99.90;;;;;;5907697;24;20029;-80
2021/08/20 04:39:13;;;;;;;26.55;15.70;;;17.70;99.90;;;;;;5934668;24;20021;-82
2021/08/20 04:41:45;;;;;;;21.55;15.35;;;17.70;99.90;;;;;;5950874;23;20105;-81
2021/08/20 04:44:23;;;;;;;25.73;15.00;;;17.70;99.90;;;;;;6046545;23;20029;-82
2021/08/20 04:47:14;;;;;;;;;;;;;;;;;;;;;
2021/08/20 04:54:51;;;;;;;;;;;;;;;;;;;;;
2021/08/20 04:58:55;;;;;;;;;;;;;;;;;;;;;
2021/08/20 05:01:59;;;;;;;22.85;14.80;;;17.70;99.90;;;;;;5730436;24;20338;-83
2021/08/20 05:08:21;;;;;;;;;;;;;;;;;;;;;
2021/08/20 05:10:52;;;;;;;17.88;14.05;;;17.70;99.90;;;;;;5610921;25;20385;-82
2021/08/20 05:13:34;;;;;;;;;;;;;;;;;;;;;
2021/08/20 05:16:09;;;;;;;22.95;15.73;;;17.70;99.90;;;;;;5693583;24;20027;-80
2021/08/20 05:22:07;;;;;;;;;;;;;;;;;;;;;
2021/08/20 05:25:00;;;;;;;;;;;;;;;;;;;;;
2021/08/20 05:27:54;;;;;;;22.73;15.38;;;17.80;99.90;;;;;;5920604;24;20024;-80
2021/08/20 05:30:41;;;;;;;23.75;15.60;;;17.70;99.90;;;;;;5903437;24;20084;-83
2021/08/20 05:33:45;;;;;;;;;;;;;;;;;;;;;
2021/08/20 05:36:31;;;;;;;;;;;;;;;;;;;;;
2021/08/20 05:39:28;;;;;;;;;;;;;;;;;;;;;
2021/08/20 05:43:07;;;;;;;;;;;;;;;;;;;;;
2021/08/20 05:46:15;;;;;;;;;;;;;;;;;;;;;
2021/08/20 05:48:50;;;;;;;23.58;15.25;;;17.80;99.90;;;;;;5759902;24;20458;-83
2021/08/20 05:52:10;;;;;;;;;;;;;;;;;;;;;
2021/08/20 05:55:17;;;;;;;22.45;15.13;;;17.80;99.90;;;;;;5714500;24;20114;-81
2021/08/20 05:58:05;;;;;;;22.75;14.95;;;17.80;99.90;;;;;;5673595;24;20322;-82
2021/08/20 06:00:53;;;;;;;33.75;14.68;;;17.80;99.90;;;;;;5695950;24;20023;-80
2021/08/20 06:03:54;;;;;;;25.20;15.38;;;17.80;99.90;;;;;;5737345;24;20023;-83
2021/08/20 06:06:48;;;;;;;22.48;15.10;;;17.90;99.90;;;;;;5742190;24;20034;-80
2021/08/20 06:09:32;;;;;;;;;;;;;;;;;;;;;
2021/08/20 06:15:31;;;;;;;22.48;15.07;;;17.90;99.90;;;;;;5745543;24;20023;-80
2021/08/20 06:18:27;;;;;;;;;;;;;;;;;;;;;
2021/08/20 06:24:48;;;;;;;20.58;14.52;;;17.90;99.90;;;;;;5756290;24;20023;-81
2021/08/20 06:27:40;;;;;;;21.05;14.18;;;17.90;99.90;;;;;;5826933;24;20026;-83
2021/08/20 06:30:19;;;;;;;;;;;;;;;;;;;;;
2021/08/20 06:33:36;;;;;;;;;;;;;;;;;;;;;
2021/08/20 06:40:18;;;;;;;;;;;;;;;;;;;;;
2021/08/20 06:46:45;;;;;;;16.60;12.68;;;18.10;99.90;;;;;;5967022;23;20027;-81
2021/08/20 06:53:34;;;;;;;;;;;;;;;;;;;;;
2021/08/20 06:57:01;;;;;;;;;;;;;;;;;;;;;
2021/08/20 09:30:19;;;;;;;2.75;1.58;;;19.50;99.90;;;;;;5212605;22;19034842;-84
2021/08/20 09:37:19;;;;;;;;;;;;;;;;;;;;;
2021/08/20 12:27:15;;;;;;;1.73;0.47;;;21.60;99.90;;;;;;5819987;24;20105;-82
2021/08/20 12:47:34;;;;;;;;;;;;;;;;;;;;;
2021/08/20 12:51:02;;;;;;;;;;;;;;;;;;;;;
2021/08/20 12:53:41;;;;;;;1.10;0.55;;;22.60;99.90;;;;;;6081948;23;20031;-82
2021/08/20 12:56:38;;;;;;;0.85;0.50;;;22.60;99.90;;;;;;6099995;23;20021;-82
2021/08/20 12:59:17;;;;;;;0.40;0.20;;;22.80;99.90;;;;;;6143302;23;20021;-83
2021/08/20 13:01:59;;;;;;;1.58;0.50;;;22.90;99.90;;;;;;6109934;23;20020;-84
2021/08/20 13:04:54;;;;;;;0.82;0.40;;;23.00;99.90;;;;;;6125847;23;20104;-82
2021/08/20 13:08:02;;;;;;;;;;;;;;;;;;;;;
2021/08/20 13:10:39;;;;;;;1.65;0.47;;;23.20;99.90;;;;;;6129300;23;20455;-83
2021/08/20 13:13:17;;;;;;;;;;;;;;;;;;;;;
2021/08/20 13:16:13;;;;;;;1.45;0.40;;;23.20;99.90;;;;;;6087040;23;20359;-83
2021/08/20 13:18:54;;;;;;;0.87;0.47;;;23.30;99.90;;;;;;6083522;23;20523;-83
2021/08/20 13:21:27;;;;;;;0.47;0.38;;;23.30;99.90;;;;;;6102535;23;20494;-84
2021/08/20 13:24:24;;;;;;;1.85;0.40;;;23.40;99.90;;;;;;6046419;23;20039;-84
2021/08/20 13:27:18;;;;;;;0.63;0.50;;;23.50;99.90;;;;;;6138638;23;20378;-84
2021/08/20 13:30:04;;;;;;;;;;;23.50;99.90;;;;;;6160553;23;20017;-84
2021/08/20 13:32:58;;;;;;;1.23;0.40;;;23.60;99.90;;;;;;6070972;23;20343;-84
2021/08/20 13:35:38;;;;;;;0.95;0.45;;;23.60;99.90;;;;;;6117613;23;20288;-82
2021/08/20 13:38:19;;;;;;;1.63;0.40;;;23.70;99.90;;;;;;6130070;23;20442;-83
2021/08/20 13:41:06;;;;;;;0.30;0.30;;;23.70;99.90;;;;;;6126978;23;20092;-83
2021/08/20 13:43:46;;;;;;;2.08;0.50;;;23.70;99.90;;;;;;6079803;23;20079;-83
2021/08/20 13:46:28;;;;;;;;;;;23.70;99.90;;;;;;6120834;23;20105;-83
2021/08/20 13:49:08;;;;;;;0.68;0.40;;;23.70;99.90;;;;;;6122457;23;19916;-83
2021/08/20 13:51:42;;;;;;;0.38;0.30;;;23.60;99.90;;;;;;6139125;23;20538;-83
2021/08/20 13:54:24;;;;;;;0.40;0.22;;;23.70;99.90;;;;;;6124622;22;20091;-83
2021/08/20 13:56:58;;;;;;;0.65;0.30;;;23.60;99.90;;;;;;6214714;22;20078;-83
2021/08/20 13:59:42;;;;;;;;;;;;;;;;;;;;;
2021/08/20 14:02:19;;;;;;;0.55;0.43;;;23.50;99.90;;;;;;6244566;22;20412;-81
2021/08/20 14:05:10;;;;;;;0.52;0.30;;;23.50;99.90;;;;;;6113443;23;20018;-83
2021/08/20 14:07:38;;;;;;;0.77;0.20;;;23.50;99.90;;;;;;6102111;23;20041;-82
2021/08/20 14:10:15;;;;;;;1.08;0.50;;;23.40;99.90;;;;;;6114594;23;20037;-82
2021/08/20 14:12:42;;;;;;;0.75;0.40;;;23.30;99.90;;;;;;6114531;23;20374;-83
2021/08/20 14:15:11;;;;;;;0.30;0.30;;;23.30;99.90;;;;;;6113085;23;20091;-82
2021/08/20 14:17:43;;;;;;;0.30;0.20;;;23.30;99.90;;;;;;6127467;23;20395;-83
2021/08/20 14:20:14;;;;;;;0.60;0.40;;;23.20;99.90;;;;;;6114024;23;20472;-83
2021/08/20 14:22:54;;;;;;;0.70;0.40;;;23.20;99.90;;;;;;6148287;23;20020;-80
2021/08/20 14:25:25;;;;;;;0.98;0.50;;;23.20;99.90;;;;;;6228792;22;20099;-83
2021/08/20 14:27:53;;;;;;;0.50;0.50;;;23.20;99.90;;;;;;6244002;22;20020;-82
2021/08/20 14:30:23;;;;;;;2.83;0.90;;;23.20;99.90;;;;;;6231444;22;20039;-82
2021/08/20 14:32:58;;;;;;;1.98;0.68;;;23.10;99.90;;;;;;6231674;22;20027;-81
2021/08/20 14:35:50;;;;;;;1.10;0.60;;;23.00;99.90;;;;;;6233352;22;20534;-82
2021/08/20 14:38:21;;;;;;;1.02;0.50;;;22.90;99.90;;;;;;6242760;22;20095;-80
2021/08/20 14:40:50;;;;;;;1.17;0.50;;;22.90;99.90;;;;;;6219989;22;20016;-80
2021/08/20 14:43:20;;;;;;;1.05;0.57;;;22.80;99.90;;;;;;6215726;22;20035;-82
2021/08/20 14:46:08;;;;;;;0.93;0.65;;;22.80;99.90;;;;;;6229237;22;20558;-83
2021/08/20 14:48:35;;;;;;;0.95;0.55;;;22.70;99.90;;;;;;6234695;22;20042;-82
2021/08/20 14:51:05;;;;;;;0.55;0.40;;;22.70;99.90;;;;;;6231608;22;20073;-82
2021/08/20 14:53:35;;;;;;;0.70;0.50;;;22.60;99.90;;;;;;6242624;22;20028;-83
2021/08/20 14:56:05;;;;;;;2.08;0.60;;;22.50;99.90;;;;;;6220551;22;20028;-83
2021/08/20 14:58:36;;;;;;;0.68;0.50;;;22.50;99.90;;;;;;6242445;22;20020;-82
2021/08/20 15:01:10;;;;;;;1.13;0.60;;;22.50;99.90;;;;;;6229354;22;20038;-81
2021/08/20 15:03:45;;;;;;;1.23;0.50;;;22.50;99.90;;;;;;6229665;22;20417;-80
2021/08/20 15:06:18;;;;;;;1.85;0.50;;;22.50;99.90;;;;;;6229494;22;20016;-81
2021/08/20 15:08:47;;;;;;;0.57;0.50;;;22.60;99.90;;;;;;6233216;22;20016;-82
2021/08/20 15:11:14;;;;;;;0.40;0.40;;;22.60;99.90;;;;;;6229438;22;20021;-83
2021/08/20 15:13:41;;;;;;;1.67;0.55;;;22.70;99.90;;;;;;6243457;22;20437;-81
2021/08/20 15:16:09;;;;;;;0.47;0.38;;;22.70;99.90;;;;;;6242267;22;20047;-83
2021/08/20 15:18:42;;;;;;;0.47;0.30;;;22.80;99.90;;;;;;6243715;22;20023;-83
2021/08/20 15:21:21;;;;;;;;;;;;;;;;;;;;;
2021/08/20 15:23:51;;;;;;;1.05;0.30;;;22.80;99.90;;;;;;6250234;22;20022;-83
2021/08/20 15:26:22;;;;;;;0.65;0.40;;;22.80;99.90;;;;;;6230061;22;20024;-82
2021/08/20 15:28:53;;;;;;;0.85;0.45;;;22.70;99.90;;;;;;6234649;22;20023;-83
2021/08/20 15:31:20;;;;;;;0.47;0.45;;;22.70;99.90;;;;;;6221402;22;20015;-81
2021/08/20 15:33:58;;;;;;;0.45;0.20;;;22.70;99.90;;;;;;6243316;22;20382;-83
2021/08/20 15:36:25;;;;;;;0.47;0.35;;;22.60;99.90;;;;;;6227927;22;20027;-83
2021/08/20 15:38:56;;;;;;;0.80;0.32;;;22.50;99.90;;;;;;6243491;22;20460;-82
2021/08/20 15:41:23;;;;;;;0.47;0.30;;;22.50;99.90;;;;;;6216102;22;20106;-83
2021/08/20 15:43:54;;;;;;;1.08;0.40;;;22.50;99.90;;;;;;6242681;22;20246;-83
2021/08/20 15:46:25;;;;;;;0.20;0.20;;;22.50;99.90;;;;;;6220061;22;20200;-81
2021/08/20 15:48:54;;;;;;;0.40;0.40;;;22.50;99.90;;;;;;6243357;22;20433;-83
2021/08/20 15:51:24;;;;;;;0.52;0.30;;;22.60;99.90;;;;;;6230115;22;20070;-83
2021/08/20 15:53:54;;;;;;;0.43;0.43;;;22.60;99.90;;;;;;6232534;22;20042;-83
2021/08/20 15:56:24;;;;;;;0.70;0.30;;;22.60;99.90;;;;;;6230846;22;20027;-82
2021/08/20 15:58:53;;;;;;;1.20;0.20;;;22.50;99.90;;;;;;6230779;22;20459;-83
2021/08/20 16:01:25;;;;;;;0.57;0.30;;;22.50;99.90;;;;;;6230226;22;20137;-83
2021/08/20 16:03:56;;;;;;;0.30;0.30;;;22.50;99.90;;;;;;6242890;22;20445;-83
2021/08/20 16:06:34;;;;;;;1.23;0.38;;;22.50;99.90;;;;;;6231246;22;20045;-83
2021/08/20 16:09:12;;;;;;;0.65;0.40;;;22.50;99.90;;;;;;6242367;22;20016;-83
2021/08/20 16:11:50;;;;;;;0.60;0.40;;;22.50;99.90;;;;;;6215871;22;20020;-83
2021/08/20 16:14:28;;;;;;;0.77;0.50;;;22.50;99.90;;;;;;6213597;22;20074;-83
2021/08/20 16:17:12;;;;;;;0.80;0.30;;;22.50;99.90;;;;;;6211333;22;20028;-82
2021/08/20 16:20:39;;;;;;;;;;;;;;;;;;;;;
2021/08/20 16:23:11;;;;;;;0.40;0.25;;;22.50;99.90;;;;;;6094928;23;20428;-83
2021/08/20 16:25:39;;;;;;;0.70;0.40;;;22.40;99.90;;;;;;6115721;23;20024;-82
2021/08/20 16:28:09;;;;;;;0.30;0.30;;;22.30;99.90;;;;;;6165950;23;20012;-83
2021/08/20 16:30:53;;;;;;;0.38;0.30;;;22.30;99.90;;;;;;6158841;23;20021;-83
2021/08/20 16:33:33;;;;;;;;;;;;;;;;;;;;;
2021/08/20 16:36:10;;;;;;;0.75;0.40;;;22.20;99.90;;;;;;6218564;22;20020;-83
2021/08/20 16:38:58;;;;;;;;;;;;;;;;;;;;;
2021/08/20 16:41:46;;;;;;;0.70;0.50;;;22.20;99.90;;;;;;6222852;22;20016;-83
2021/08/20 16:44:39;;;;;;;0.47;0.38;;;22.20;99.90;;;;;;6063683;23;20030;-81
2021/08/20 16:47:16;;;;;;;0.52;0.38;;;22.10;99.90;;;;;;6096415;23;20101;-83
2021/08/20 16:50:03;;;;;;;0.95;0.40;;;22.20;99.90;;;;;;6086090;23;20457;-82
2021/08/20 16:52:38;;;;;;;0.28;0.28;;;22.20;99.90;;;;;;6087884;23;20017;-82
2021/08/20 16:55:22;;;;;;;0.82;0.50;;;22.30;99.90;;;;;;6124003;23;20022;-83
2021/08/20 16:57:57;;;;;;;0.65;0.50;;;22.40;99.90;;;;;;6089991;23;20049;-83
2021/08/20 17:00:54;;;;;;;0.63;0.40;;;22.40;99.90;;;;;;6056262;23;20478;-80
2021/08/20 17:03:30;;;;;;;0.52;0.30;;;22.40;99.90;;;;;;6121873;23;20022;-83
2021/08/20 17:05:57;;;;;;;0.60;0.30;;;22.40;99.90;;;;;;6115461;23;20022;-83
2021/08/20 17:08:24;;;;;;;0.75;0.40;;;22.40;99.90;;;;;;6112733;23;20029;-83
2021/08/20 17:10:51;;;;;;;2.47;0.32;;;22.30;99.90;;;;;;6151026;23;20025;-82
2021/08/20 17:13:21;;;;;;;0.60;0.40;;;22.30;99.90;;;;;;6100064;23;20029;-82
2021/08/20 17:16:04;;;;;;;0.68;0.30;;;22.30;99.90;;;;;;6151168;23;20026;-84
2021/08/20 17:19:00;;;;;;;0.30;0.30;;;22.40;99.90;;;;;;6115590;23;20069;-83
2021/08/20 17:21:46;;;;;;;0.75;0.50;;;22.50;99.90;;;;;;6129117;23;20026;-82
2021/08/20 17:24:17;;;;;;;1.13;0.35;;;22.60;99.90;;;;;;6195219;23;20087;-81
2021/08/20 17:26:51;;;;;;;0.30;0.30;;;22.60;99.90;;;;;;6182117;23;20016;-81
2021/08/20 17:29:30;;;;;;;0.65;0.30;;;22.60;99.90;;;;;;6162115;23;20055;-83
2021/08/20 17:32:08;;;;;;;0.43;0.40;;;22.60;99.90;;;;;;6185352;23;20016;-81
2021/08/20 17:34:52;;;;;;;0.57;0.40;;;22.60;99.90;;;;;;6182178;23;20020;-84
2021/08/20 17:37:28;;;;;;;0.30;0.30;;;22.70;99.90;;;;;;6177438;23;20019;-80
2021/08/20 17:40:05;;;;;;;1.95;0.40;;;22.60;99.90;;;;;;6200122;23;20447;-83
2021/08/20 17:42:53;;;;;;;;;;;;;;;;;;;;;
2021/08/20 17:45:51;;;;;;;;;;;;;;;;;;;;;
2021/08/20 17:48:49;;;;;;;0.77;0.43;;;22.60;99.90;;;;;;6226482;22;20074;-83
2021/08/20 17:51:21;;;;;;;0.50;0.50;;;22.70;99.90;;;;;;6224623;22;20019;-83
2021/08/20 17:53:55;;;;;;;1.10;0.63;;;22.70;99.90;;;;;;6203003;22;20086;-82
2021/08/20 17:56:28;;;;;;;0.50;0.50;;;22.70;99.90;;;;;;6208406;22;20194;-83
2021/08/20 17:59:08;;;;;;;0.50;0.40;;;22.70;99.90;;;;;;6198695;22;20027;-80
2021/08/20 18:02:13;;;;;;;0.93;0.52;;;22.60;99.90;;;;;;6211420;23;20103;-83
2021/08/20 18:04:41;;;;;;;0.55;0.45;;;22.50;99.90;;;;;;6222674;22;20019;-82
2021/08/20 18:07:08;;;;;;;0.55;0.40;;;22.50;99.90;;;;;;6232223;22;20019;-83
2021/08/20 18:09:40;;;;;;;0.63;0.50;;;22.50;99.90;;;;;;6225964;22;20015;-83
2021/08/20 18:12:19;;;;;;;0.70;0.60;;;22.50;99.90;;;;;;6221140;22;20467;-80
2021/08/20 18:14:49;;;;;;;2.33;0.90;;;22.50;99.90;;;;;;6249099;22;20089;-82
2021/08/20 18:17:19;;;;;;;3.08;1.73;;;22.50;99.90;;;;;;6216993;22;20456;-81
2021/08/20 18:19:50;;;;;;;3.80;2.10;;;22.50;99.90;;;;;;6235207;22;20038;-83
2021/08/20 18:22:28;;;;;;;3.63;2.40;;;22.50;99.90;;;;;;6231112;22;20050;-83
2021/08/20 18:25:08;;;;;;;2.50;1.40;;;22.50;99.90;;;;;;6238522;22;20023;-81
2021/08/20 18:27:53;;;;;;;1.95;1.20;;;22.60;99.90;;;;;;6184133;23;20024;-83
2021/08/20 18:30:58;;;;;;;1.80;0.98;;;22.90;99.90;;;;;;6182325;23;20457;-79
2021/08/20 18:33:41;;;;;;;1.73;1.63;;;23.30;99.90;;;;;;6202814;23;20024;-81
2021/08/20 18:36:11;;;;;;;1.65;0.90;;;23.40;99.90;;;;;;6187099;23;20028;-84
2021/08/20 18:38:51;;;;;;;0.95;0.85;;;23.50;99.90;;;;;;6230818;23;20020;-82
2021/08/20 18:41:21;;;;;;;0.80;0.70;;;23.40;99.90;;;;;;6227591;23;20432;-80
2021/08/20 18:43:51;;;;;;;0.52;0.50;;;23.20;99.90;;;;;;6222320;23;20028;-83
2021/08/20 18:46:23;;;;;;;1.13;0.60;;;23.00;99.90;;;;;;6164802;23;20039;-83
2021/08/20 18:48:51;;;;;;;1.55;0.73;;;22.80;99.90;;;;;;6213488;23;20020;-82
2021/08/20 18:51:19;;;;;;;3.03;1.00;;;22.60;99.90;;;;;;6212712;23;20095;-83
2021/08/20 18:53:50;;;;;;;1.20;0.60;;;22.40;99.90;;;;;;6213514;23;20020;-82
2021/08/20 18:56:29;;;;;;;;;;;;;;;;;;;;;
2021/08/20 18:58:59;;;;;;;0.73;0.70;;;22.00;99.90;;;;;;6214902;23;20043;-82
2021/08/20 19:01:26;;;;;;;1.70;0.90;;;21.80;99.90;;;;;;6192233;23;20095;-80
2021/08/20 19:03:54;;;;;;;1.63;0.90;;;21.70;99.90;;;;;;6213251;23;20020;-83
2021/08/20 19:06:21;;;;;;;1.75;1.40;;;21.50;99.90;;;;;;6212162;23;20023;-81
2021/08/20 19:08:48;;;;;;;1.50;1.15;;;21.40;99.90;;;;;;6213269;23;20090;-82
2021/08/20 19:11:15;;;;;;;1.95;1.10;;;21.20;99.90;;;;;;6212449;23;20023;-82
2021/08/20 19:13:45;;;;;;;1.27;1.13;;;21.00;99.90;;;;;;6204164;23;20016;-82
2021/08/20 19:16:12;;;;;;;1.13;0.95;;;20.90;99.90;;;;;;6212353;23;20026;-82
2021/08/20 19:18:39;;;;;;;1.77;1.13;;;20.80;99.90;;;;;;6212959;23;20409;-82
2021/08/20 19:21:05;;;;;;;1.90;0.93;;;20.60;99.90;;;;;;6211607;23;20039;-82
2021/08/20 19:23:34;;;;;;;;;;;20.50;99.90;;;;;;6213965;23;20498;-80
2021/08/20 19:26:04;;;;;;;2.20;0.85;;;20.30;99.90;;;;;;6213520;23;20527;-82
2021/08/20 19:28:36;;;;;;;0.80;0.73;;;20.20;99.90;;;;;;6242450;23;20024;-82
2021/08/20 19:31:03;;;;;;;3.05;1.00;;;20.10;99.90;;;;;;6243723;23;20020;-82
2021/08/20 19:33:30;;;;;;;2.65;0.80;;;20.00;99.90;;;;;;6267504;22;20031;-82
2021/08/20 19:35:57;;;;;;;0.80;0.80;;;19.90;99.90;;;;;;6243542;23;20337;-80
2021/08/20 19:38:25;;;;;;;1.55;1.00;;;19.80;99.90;;;;;;6243017;22;20028;-82
2021/08/20 19:40:57;;;;;;;1.63;1.40;;;19.70;99.90;;;;;;6243539;23;20028;-81
2021/08/20 19:43:24;;;;;;;2.08;1.00;;;19.60;99.90;;;;;;6242665;22;20384;-82
2021/08/20 19:45:52;;;;;;;2.05;0.88;;;19.60;99.90;;;;;;6232298;23;20027;-81
2021/08/20 19:48:19;;;;;;;1.50;1.00;;;19.50;99.90;;;;;;6242003;23;20367;-82
2021/08/20 19:50:46;;;;;;;1.60;1.00;;;19.40;99.90;;;;;;6218340;23;20032;-81
2021/08/20 19:53:13;;;;;;;1.23;1.13;;;19.30;99.90;;;;;;6216926;23;20095;-82
2021/08/20 19:55:41;;;;;;;1.40;1.00;;;19.30;99.90;;;;;;6217951;23;20016;-81
2021/08/20 19:58:09;;;;;;;3.22;1.02;;;19.20;99.90;;;;;;6217264;23;20039;-81
2021/08/20 20:00:36;;;;;;;2.83;0.93;;;19.20;99.90;;;;;;6218180;23;20028;-80
2021/08/20 20:03:04;;;;;;;2.08;1.20;;;19.10;99.90;;;;;;6218567;23;20016;-79
2021/08/20 20:05:31;;;;;;;2.17;1.27;;;19.00;99.90;;;;;;6216731;23;20027;-82
2021/08/20 20:07:58;;;;;;;2.72;0.95;;;19.00;99.90;;;;;;6218335;23;20020;-80
2021/08/20 20:10:26;;;;;;;2.42;1.10;;;18.90;99.90;;;;;;6216818;23;20016;-82
2021/08/20 20:12:53;;;;;;;1.67;1.07;;;18.80;99.90;;;;;;6218331;23;20336;-80
2021/08/20 20:15:20;;;;;;;2.45;0.88;;;18.80;99.90;;;;;;6216781;23;20511;-81
2021/08/20 20:17:47;;;;;;;2.00;0.80;;;18.80;99.90;;;;;;6218003;23;20039;-82
2021/08/20 20:20:16;;;;;;;1.50;1.00;;;18.70;99.90;;;;;;6217246;23;20030;-82
2021/08/20 20:22:44;;;;;;;1.50;1.00;;;18.70;99.90;;;;;;6218079;23;20098;-82
2021/08/20 20:25:13;;;;;;;1.67;0.98;;;18.70;99.90;;;;;;6217239;23;20016;-81
2021/08/20 20:27:40;;;;;;;1.25;1.05;;;18.70;99.90;;;;;;6218083;23;20016;-81
2021/08/20 20:30:10;;;;;;;2.73;1.13;;;18.70;99.90;;;;;;6216685;23;20022;-82
2021/08/20 20:32:37;;;;;;;1.58;1.20;;;18.60;99.90;;;;;;6217860;23;20074;-82
2021/08/20 20:35:05;;;;;;;2.55;1.30;;;18.60;99.90;;;;;;6217737;23;20077;-79
2021/08/20 20:37:32;;;;;;;3.58;1.20;;;18.60;99.90;;;;;;6216980;23;20035;-81
2021/08/20 20:40:00;;;;;;;2.10;0.98;;;18.50;99.90;;;;;;6217756;23;20027;-81
2021/08/20 20:42:27;;;;;;;1.40;1.10;;;18.50;99.90;;;;;;6216690;23;20044;-82
2021/08/20 20:44:54;;;;;;;2.40;1.30;;;18.50;99.90;;;;;;6217374;22;20437;-79
2021/08/20 20:47:21;;;;;;;1.55;1.10;;;18.40;99.90;;;;;;6217180;23;20058;-81
2021/08/20 20:49:48;;;;;;;1.90;0.93;;;18.40;99.90;;;;;;6217431;23;20076;-80
2021/08/20 20:52:16;;;;;;;1.98;1.13;;;18.30;99.90;;;;;;6216763;23;20416;-80